createdAt,value
2022-09-17T00:00:26.046Z,96.35
2022-09-17T00:03:23.293Z,94.82
2022-09-17T00:06:13.609Z,95.35
2022-09-17T00:09:11.668Z,95.09
2022-09-17T00:12:01.510Z,96.11
2022-09-17T00:14:58.838Z,96.89
2022-09-17T00:17:47.127Z,95.97
2022-09-17T00:20:47.513Z,95.24
2022-09-17T00:23:35.894Z,92.99
2022-09-17T00:26:34.163Z,92.98
2022-09-17T00:29:23.900Z,93.35
2022-09-17T00:32:21.080Z,95.83
2022-09-17T00:35:09.468Z,96.46
2022-09-17T00:38:06.994Z,97.46
2022-09-17T00:40:55.711Z,98.58
2022-09-17T00:43:57.230Z,98.86
2022-09-17T00:46:47.271Z,98.26
2022-09-17T00:49:35.684Z,97.66
2022-09-17T00:52:34.622Z,97.04
2022-09-17T00:55:26.746Z,95.05
2022-09-17T00:58:17.956Z,95.39
2022-09-17T01:01:06.878Z,95.30
2022-09-17T01:04:02.958Z,97.27
2022-09-17T01:07:00.811Z,95.48
2022-09-17T01:09:55.861Z,94.40
2022-09-17T01:12:59.060Z,95.75
2022-09-17T01:15:55.245Z,96.84
2022-09-17T01:18:56.445Z,98.22
2022-09-17T01:21:58.777Z,100.00
2022-09-17T01:24:51.090Z,100.00
2022-09-17T01:28:23.894Z,99.62
2022-09-17T01:31:36.221Z,98.53
2022-09-17T01:34:31.985Z,96.98
2022-09-17T01:37:30.889Z,94.61
2022-09-17T01:40:25.882Z,94.33
2022-09-17T01:43:22.510Z,95.44
2022-09-17T01:46:16.742Z,94.84
2022-09-17T01:49:08.722Z,93.89
2022-09-17T01:51:57.336Z,95.45
2022-09-17T01:54:56.926Z,94.59
2022-09-17T01:57:50.904Z,94.69
2022-09-17T02:00:42.544Z,94.32
2022-09-17T02:03:35.864Z,94.84
2022-09-17T02:06:30.518Z,95.32
2022-09-17T02:09:23.584Z,94.79
2022-09-17T02:12:16.226Z,95.97
2022-09-17T02:15:09.940Z,95.62
2022-09-17T02:18:06.644Z,94.32
2022-09-17T02:21:04.228Z,94.50
2022-09-17T02:24:04.424Z,94.81
2022-09-17T02:26:59.604Z,94.67
2022-09-17T02:29:47.872Z,92.88
2022-09-17T02:32:46.390Z,94.63
2022-09-17T02:35:34.810Z,96.45
2022-09-17T02:38:32.403Z,94.46
2022-09-17T02:41:27.068Z,94.96
2022-09-17T02:44:23.115Z,95.56
2022-09-17T02:47:30.272Z,96.78
2022-09-17T02:50:33.396Z,95.94
2022-09-17T02:53:38.290Z,95.36
2022-09-17T02:56:39.436Z,93.00
2022-09-17T02:59:32.856Z,93.05
2022-09-17T03:02:25.447Z,93.24
2022-09-17T03:05:15.539Z,94.28
2022-09-17T03:08:13.189Z,94.20
2022-09-17T03:11:01.536Z,91.96
2022-09-17T03:13:51.311Z,93.91
2022-09-17T03:16:39.667Z,94.30
2022-09-17T03:19:28.425Z,93.56
2022-09-17T03:22:16.661Z,97.60
2022-09-17T03:25:05.665Z,99.38
2022-09-17T03:27:53.935Z,100.00
2022-09-17T03:30:44.386Z,100.00
2022-09-17T03:33:32.684Z,100.00
2022-09-17T03:36:21.033Z,100.00
2022-09-17T03:39:09.619Z,100.00
2022-09-17T03:42:03.968Z,99.90
2022-09-17T03:44:52.181Z,99.12
2022-09-17T03:47:41.811Z,99.49
2022-09-17T03:50:30.071Z,98.87
2022-09-17T03:53:27.571Z,97.72
2022-09-17T03:56:16.396Z,95.96
2022-09-17T03:59:13.433Z,92.96
2022-09-17T04:02:01.874Z,92.36
2022-09-17T04:04:54.802Z,93.81
2022-09-17T04:07:43.116Z,93.67
2022-09-17T04:10:40.510Z,92.60
2022-09-17T04:13:28.808Z,94.39
2022-09-17T04:16:26.032Z,94.18
2022-09-17T04:19:14.489Z,93.89
2022-09-17T04:22:13.603Z,92.52
2022-09-17T04:25:01.930Z,92.02
2022-09-17T04:27:59.302Z,92.56
2022-09-17T04:30:49.044Z,93.05
2022-09-17T04:33:46.313Z,93.30
2022-09-17T04:36:34.591Z,92.26
2022-09-17T04:39:33.301Z,93.43
2022-09-17T04:42:21.576Z,93.90
2022-09-17T04:45:18.885Z,94.59
2022-09-17T04:48:07.178Z,94.04
2022-09-17T04:51:01.763Z,94.44
2022-09-17T04:53:50.040Z,94.64
2022-09-17T04:56:45.639Z,94.63
2022-09-17T04:59:33.984Z,93.49
2022-09-17T05:02:28.354Z,93.10
2022-09-17T05:05:17.852Z,92.17
2022-09-17T05:08:12.267Z,91.55
2022-09-17T05:11:00.644Z,91.80
2022-09-17T05:13:56.346Z,92.60
2022-09-17T05:16:44.688Z,92.92
2022-09-17T05:19:38.857Z,92.02
2022-09-17T05:22:27.512Z,93.25
2022-09-17T05:25:24.934Z,94.00
2022-09-17T05:28:13.352Z,95.66
2022-09-17T05:31:09.398Z,94.43
2022-09-17T05:33:59.063Z,93.78
2022-09-17T05:36:53.368Z,92.16
2022-09-17T05:39:41.707Z,92.11
2022-09-17T05:42:36.668Z,92.11
2022-09-17T05:45:25.061Z,91.53
2022-09-17T05:48:16.059Z,92.87
2022-09-17T05:51:04.485Z,92.96
2022-09-17T05:53:58.749Z,93.40
2022-09-17T05:56:47.095Z,91.89
2022-09-17T05:59:41.420Z,89.69
2022-09-17T06:02:29.771Z,88.62
2022-09-17T06:05:25.313Z,87.95
2022-09-17T06:08:13.657Z,91.58
2022-09-17T06:11:08.951Z,90.77
2022-09-17T06:13:58.030Z,88.52
2022-09-17T06:16:52.464Z,87.00
2022-09-17T06:19:40.773Z,89.40
2022-09-17T06:22:36.353Z,89.58
2022-09-17T06:25:24.948Z,87.52
2022-09-17T06:28:19.202Z,86.31
2022-09-17T06:31:09.169Z,87.46
2022-09-17T06:34:05.715Z,86.19
2022-09-17T06:36:53.963Z,86.21
2022-09-17T06:39:49.954Z,86.53
2022-09-17T06:42:38.356Z,86.96
2022-09-17T06:45:33.275Z,87.99
2022-09-17T06:48:21.996Z,86.72
2022-09-17T06:51:12.181Z,87.81
2022-09-17T06:54:00.542Z,87.51
2022-09-17T06:56:50.218Z,88.05
2022-09-17T06:59:38.543Z,86.09
2022-09-17T07:02:26.817Z,88.73
2022-09-17T07:05:15.306Z,86.08
2022-09-17T07:08:04.588Z,85.64
2022-09-17T07:11:02.389Z,87.54
2022-09-17T07:13:52.345Z,87.04
2022-09-17T07:16:40.622Z,86.75
2022-09-17T07:19:35.111Z,87.58
2022-09-17T07:22:25.723Z,87.26
2022-09-17T07:25:15.965Z,86.32
2022-09-17T07:28:13.515Z,85.22
2022-09-17T07:31:06.493Z,84.35
2022-09-17T07:33:54.997Z,86.25
2022-09-17T07:36:49.174Z,84.50
2022-09-17T07:39:37.545Z,82.85
2022-09-17T07:42:32.027Z,85.42
2022-09-17T07:45:20.324Z,86.18
2022-09-17T07:48:10.042Z,85.59
2022-09-17T07:51:07.707Z,83.41
2022-09-17T07:53:57.962Z,83.06
2022-09-17T07:56:55.406Z,81.41
2022-09-17T07:59:43.750Z,83.33
2022-09-17T08:02:41.105Z,81.37
2022-09-17T08:05:30.834Z,83.21
2022-09-17T08:08:28.102Z,81.14
2022-09-17T08:11:38.217Z,82.10
2022-09-17T08:14:29.729Z,83.02
2022-09-17T08:17:18.570Z,81.92
2022-09-17T08:20:17.261Z,82.85
2022-09-17T08:23:06.899Z,83.95
2022-09-17T08:26:06.110Z,83.63
2022-09-17T08:28:56.693Z,84.65
2022-09-17T08:31:45.066Z,83.55
2022-09-17T08:34:39.632Z,81.38
2022-09-17T08:37:29.818Z,81.97
2022-09-17T08:40:27.962Z,82.35
2022-09-17T08:43:19.695Z,83.41
2022-09-17T08:46:11.136Z,81.03
2022-09-17T08:49:08.518Z,82.67
2022-09-17T08:52:29.332Z,83.67
2022-09-17T08:55:34.112Z,84.30
2022-09-17T08:58:35.368Z,82.45
2022-09-17T09:01:43.603Z,82.50
2022-09-17T09:04:59.814Z,80.12
2022-09-17T09:07:52.806Z,79.41
2022-09-17T09:10:49.032Z,81.66
2022-09-17T09:13:43.293Z,79.84
2022-09-17T09:16:35.166Z,79.14
2022-09-17T09:19:25.622Z,80.72
2022-09-17T09:22:37.580Z,78.13
2022-09-17T09:25:28.640Z,75.88
2022-09-17T09:28:43.261Z,75.87
2022-09-17T09:31:47.426Z,77.17
2022-09-17T09:34:37.727Z,75.61
2022-09-17T09:37:36.353Z,76.18
2022-09-17T09:40:34.474Z,77.99
2022-09-17T09:43:46.358Z,77.67
2022-09-17T09:46:48.954Z,76.05
2022-09-17T09:49:50.373Z,75.92
2022-09-17T09:52:53.016Z,77.12
2022-09-17T09:56:02.251Z,74.79
2022-09-17T09:58:50.580Z,76.29
2022-09-17T10:01:46.503Z,76.41
2022-09-17T10:04:35.033Z,74.27
2022-09-17T10:07:29.566Z,74.87
2022-09-17T10:10:17.934Z,74.63
2022-09-17T10:13:15.047Z,73.42
2022-09-17T10:16:18.946Z,74.63
2022-09-17T10:19:19.737Z,73.09
2022-09-17T10:22:21.637Z,70.70
2022-09-17T10:25:25.692Z,69.84
2022-09-17T10:28:36.626Z,71.97
2022-09-17T10:31:25.291Z,71.88
2022-09-17T10:34:27.017Z,71.08
2022-09-17T10:37:35.875Z,67.96
2022-09-17T10:40:31.438Z,69.17
2022-09-17T10:43:23.934Z,69.06
2022-09-17T10:46:16.498Z,69.50
2022-09-17T10:49:11.288Z,70.02
2022-09-17T10:52:09.773Z,69.22
2022-09-17T10:55:20.168Z,68.60
2022-09-17T10:58:25.509Z,68.33
2022-09-17T11:01:26.504Z,68.12
2022-09-17T11:04:26.907Z,68.20
2022-09-17T11:07:33.448Z,70.20
2022-09-17T11:10:31.012Z,70.95
2022-09-17T11:13:27.555Z,71.03
2022-09-17T11:16:32.051Z,71.32
2022-09-17T11:19:28.637Z,72.46
2022-09-17T11:22:28.447Z,73.74
2022-09-17T11:25:29.758Z,73.55
2022-09-17T11:28:48.598Z,73.64
2022-09-17T11:31:44.651Z,75.49
2022-09-17T11:34:39.349Z,76.02
2022-09-17T11:37:34.258Z,76.23
2022-09-17T11:40:26.958Z,77.48
2022-09-17T11:43:26.342Z,79.03
2022-09-17T11:46:20.053Z,79.78
2022-09-17T11:49:16.738Z,80.22
2022-09-17T11:52:11.321Z,78.96
2022-09-17T11:55:10.859Z,77.49
2022-09-17T11:58:03.916Z,76.52
2022-09-17T12:01:00.017Z,78.75
2022-09-17T12:03:54.848Z,80.15
2022-09-17T12:06:50.585Z,79.29
2022-09-17T12:09:44.318Z,77.71
2022-09-17T12:12:49.513Z,74.82
2022-09-17T12:15:43.534Z,77.58
2022-09-17T12:18:44.294Z,76.94
2022-09-17T12:21:38.335Z,76.18
2022-09-17T12:24:28.299Z,75.74
2022-09-17T12:27:39.265Z,75.80
2022-09-17T12:30:33.771Z,75.37
2022-09-17T12:33:29.264Z,75.44
2022-09-17T12:36:36.811Z,76.70
2022-09-17T12:39:59.773Z,75.37
2022-09-17T12:43:16.005Z,77.16
2022-09-17T12:46:17.058Z,76.85
2022-09-17T12:49:22.006Z,78.10
2022-09-17T12:52:22.428Z,77.88
2022-09-17T12:55:26.954Z,79.26
2022-09-17T12:58:29.443Z,78.82
2022-09-17T13:01:25.523Z,78.77
2022-09-17T13:04:50.167Z,79.57
2022-09-17T13:08:10.212Z,79.17
2022-09-17T13:11:27.561Z,80.27
2022-09-17T13:14:23.709Z,81.19
2022-09-17T13:17:20.861Z,80.08
2022-09-17T13:20:18.611Z,79.81
2022-09-17T13:23:07.507Z,79.78
2022-09-17T13:26:05.467Z,78.42
2022-09-17T13:28:54.149Z,78.20
2022-09-17T13:31:51.080Z,78.62
2022-09-17T13:34:39.485Z,80.73
2022-09-17T13:37:34.571Z,79.21
2022-09-17T13:40:24.692Z,79.49
2022-09-17T13:43:27.100Z,80.76
2022-09-17T13:46:24.083Z,81.13
2022-09-17T13:49:17.399Z,81.96
2022-09-17T13:52:09.019Z,81.35
2022-09-17T13:55:00.490Z,79.37
2022-09-17T13:57:59.085Z,80.32
2022-09-17T14:00:54.241Z,80.24
2022-09-17T14:03:52.714Z,80.58
2022-09-17T14:06:55.968Z,79.58
2022-09-17T14:09:53.389Z,80.81
2022-09-17T14:13:21.573Z,81.14
2022-09-17T14:16:50.473Z,81.62
2022-09-17T14:19:51.562Z,81.65
2022-09-17T14:22:41.699Z,82.79
2022-09-17T14:25:42.129Z,81.24
2022-09-17T14:28:40.797Z,81.30
2022-09-17T14:31:35.157Z,82.99
2022-09-17T14:34:26.709Z,83.13
2022-09-17T14:37:19.645Z,82.76
2022-09-17T14:40:12.706Z,81.83
2022-09-17T14:43:02.907Z,81.53
2022-09-17T14:45:55.463Z,82.28
2022-09-17T14:48:43.803Z,82.58
2022-09-17T14:51:41.561Z,81.22
2022-09-17T14:54:35.830Z,80.35
2022-09-17T14:57:28.889Z,79.98
2022-09-17T15:00:21.835Z,80.90
2022-09-17T15:03:22.445Z,80.99
2022-09-17T15:06:21.737Z,79.41
2022-09-17T15:09:16.324Z,81.07
2022-09-17T15:12:06.797Z,81.74
2022-09-17T15:14:58.015Z,82.50
2022-09-17T15:17:46.743Z,81.57
2022-09-17T15:20:48.059Z,81.45
2022-09-17T15:23:37.865Z,81.06
2022-09-17T15:26:40.815Z,80.72
2022-09-17T15:29:31.839Z,81.34
2022-09-17T15:32:21.782Z,81.25
2022-09-17T15:35:28.443Z,80.88
2022-09-17T15:38:27.518Z,80.87
2022-09-17T15:41:28.589Z,82.57
2022-09-17T15:44:30.750Z,83.10
2022-09-17T15:47:50.535Z,82.10
2022-09-17T15:50:52.354Z,83.46
2022-09-17T15:53:40.695Z,82.66
2022-09-17T15:56:40.381Z,84.03
2022-09-17T15:59:30.985Z,83.53
2022-09-17T16:02:28.485Z,81.98
2022-09-17T16:05:46.453Z,81.91
2022-09-17T16:08:36.465Z,81.81
2022-09-17T16:11:32.337Z,80.22
2022-09-17T16:14:20.709Z,81.89
2022-09-17T16:17:29.113Z,81.95
2022-09-17T16:20:22.023Z,83.06
2022-09-17T16:23:11.355Z,81.24
2022-09-17T16:26:16.640Z,84.38
2022-09-17T16:29:08.055Z,83.79
2022-09-17T16:31:56.651Z,84.72
2022-09-17T16:34:45.037Z,84.03
2022-09-17T16:37:42.694Z,84.34
2022-09-17T16:40:31.441Z,85.09
2022-09-17T16:43:30.522Z,85.42
2022-09-17T16:46:19.006Z,83.27
2022-09-17T16:49:15.458Z,85.75
2022-09-17T16:52:03.786Z,85.35
2022-09-17T16:54:58.250Z,86.45
2022-09-17T16:57:46.845Z,87.15
2022-09-17T17:00:37.480Z,88.31
2022-09-17T17:03:26.078Z,85.48
2022-09-17T17:06:17.194Z,87.95
2022-09-17T17:09:05.657Z,87.99
2022-09-17T17:11:53.966Z,89.67
2022-09-17T17:14:42.305Z,89.62
2022-09-17T17:17:32.467Z,88.63
2022-09-17T17:20:21.018Z,88.84
2022-09-17T17:23:09.521Z,89.79
2022-09-17T17:25:58.110Z,90.77
2022-09-17T17:28:52.772Z,91.06
2022-09-17T17:31:41.677Z,91.71
2022-09-17T17:34:34.551Z,92.39
2022-09-17T17:37:23.547Z,91.65
2022-09-17T17:40:12.191Z,90.66
2022-09-17T17:43:00.539Z,91.10
2022-09-17T17:45:48.839Z,91.44
2022-09-17T17:48:37.461Z,90.48
2022-09-17T17:51:27.379Z,91.64
2022-09-17T17:54:15.768Z,92.08
2022-09-17T17:57:13.198Z,89.36
2022-09-17T18:00:01.608Z,91.51
2022-09-17T18:03:00.322Z,90.96
2022-09-17T18:05:48.704Z,92.10
2022-09-17T18:08:47.731Z,92.04
2022-09-17T18:11:36.965Z,91.68
2022-09-17T18:14:25.314Z,92.19
2022-09-17T18:17:13.665Z,91.79
2022-09-17T18:20:02.415Z,92.00
2022-09-17T18:22:50.824Z,92.16
2022-09-17T18:25:40.534Z,92.51
2022-09-17T18:28:30.766Z,91.99
2022-09-17T18:31:23.376Z,93.85
2022-09-17T18:34:14.010Z,93.49
2022-09-17T18:37:02.279Z,93.25
2022-09-17T18:39:58.434Z,93.76
2022-09-17T18:42:49.739Z,95.56
2022-09-17T18:45:38.206Z,95.58
2022-09-17T18:48:30.398Z,95.39
2022-09-17T18:51:21.579Z,95.44
2022-09-17T18:54:12.748Z,95.50
2022-09-17T18:57:01.253Z,94.98
2022-09-17T18:59:51.207Z,93.54
2022-09-17T19:02:39.814Z,94.94
2022-09-17T19:05:37.980Z,96.91
2022-09-17T19:08:26.342Z,94.59
2022-09-17T19:11:15.094Z,96.26
2022-09-17T19:14:03.860Z,95.16
2022-09-17T19:16:55.340Z,97.14
2022-09-17T19:19:43.807Z,96.58
2022-09-17T19:22:33.149Z,96.45
2022-09-17T19:25:22.232Z,97.17
2022-09-17T19:28:10.630Z,97.20
2022-09-17T19:30:59.345Z,96.34
2022-09-17T19:33:49.216Z,95.60
2022-09-17T19:36:37.802Z,97.57
2022-09-17T19:39:27.505Z,97.72
2022-09-17T19:42:15.934Z,97.06
2022-09-17T19:45:05.131Z,96.77
2022-09-17T19:47:56.525Z,98.15
2022-09-17T19:50:53.177Z,96.22
2022-09-17T19:53:41.715Z,95.12
2022-09-17T19:56:37.153Z,96.34
2022-09-17T19:59:25.969Z,96.21
2022-09-17T20:02:14.504Z,94.92
2022-09-17T20:05:12.161Z,96.84
2022-09-17T20:08:02.458Z,94.95
2022-09-17T20:10:53.971Z,96.02
2022-09-17T20:13:42.442Z,96.31
2022-09-17T20:16:31.285Z,94.96
2022-09-17T20:19:20.189Z,94.89
2022-09-17T20:22:17.752Z,93.22
2022-09-17T20:25:09.240Z,93.83
2022-09-17T20:27:58.266Z,95.72
2022-09-17T20:31:01.584Z,95.82
2022-09-17T20:33:52.957Z,96.01
2022-09-17T20:36:41.843Z,96.40
2022-09-17T20:39:39.163Z,96.53
2022-09-17T20:42:28.881Z,96.88
2022-09-17T20:45:26.348Z,96.82
2022-09-17T20:48:14.765Z,95.81
2022-09-17T20:51:05.328Z,95.93
2022-09-17T20:53:54.048Z,96.30
2022-09-17T20:56:48.702Z,95.37
2022-09-17T20:59:52.341Z,98.27
2022-09-17T21:02:43.895Z,96.04
2022-09-17T21:05:32.240Z,98.16
2022-09-17T21:08:27.509Z,97.68
2022-09-17T21:11:17.385Z,97.39
2022-09-17T21:14:11.989Z,96.49
2022-09-17T21:17:01.773Z,97.23
2022-09-17T21:19:56.293Z,95.62
2022-09-17T21:22:44.969Z,95.69
2022-09-17T21:25:39.293Z,97.09
2022-09-17T21:28:27.684Z,95.56
2022-09-17T21:31:26.282Z,97.01
2022-09-17T21:34:18.472Z,97.57
2022-09-17T21:37:13.070Z,96.80
2022-09-17T21:40:01.550Z,97.88
2022-09-17T21:42:56.114Z,97.41
2022-09-17T21:45:44.561Z,96.37
2022-09-17T21:48:35.022Z,95.58
2022-09-17T21:51:26.532Z,95.27
2022-09-17T21:54:17.058Z,95.68
2022-09-17T21:57:05.972Z,95.89
2022-09-17T22:00:00.175Z,95.04
2022-09-17T22:02:48.518Z,94.95
2022-09-17T22:05:42.765Z,93.86
2022-09-17T22:08:33.564Z,93.93
2022-09-17T22:11:24.090Z,95.96
2022-09-17T22:14:14.758Z,94.12
2022-09-17T22:17:03.150Z,94.44
2022-09-17T22:20:00.420Z,95.14
2022-09-17T22:22:49.014Z,94.77
2022-09-17T22:25:47.735Z,94.67
2022-09-17T22:28:36.672Z,94.16
2022-09-17T22:31:26.269Z,94.05
2022-09-17T22:34:16.806Z,94.66
2022-09-17T22:37:06.385Z,93.78
2022-09-17T22:39:55.805Z,94.31
2022-09-17T22:42:45.587Z,94.34
2022-09-17T22:45:39.867Z,93.72
2022-09-17T22:48:28.216Z,93.32
2022-09-17T22:51:16.749Z,92.73
2022-09-17T22:54:05.521Z,92.39
2022-09-17T22:56:53.902Z,92.11
2022-09-17T22:59:43.693Z,91.77
2022-09-17T23:02:38.013Z,90.53
2022-09-17T23:05:26.419Z,92.84
2022-09-17T23:08:20.736Z,93.61
2022-09-17T23:11:16.372Z,92.42
2022-09-17T23:14:06.402Z,91.19
2022-09-17T23:17:05.175Z,93.30
2022-09-17T23:19:53.550Z,92.64
2022-09-17T23:22:51.080Z,94.98
2022-09-17T23:25:39.390Z,93.74
2022-09-17T23:28:37.583Z,95.43
2022-09-17T23:31:28.508Z,98.35
2022-09-17T23:34:18.319Z,97.70
2022-09-17T23:37:12.904Z,99.43
2022-09-17T23:40:01.310Z,100.00
2022-09-17T23:42:56.028Z,99.79
2022-09-17T23:45:44.425Z,100.00
2022-09-17T23:48:32.845Z,100.00
2022-09-17T23:51:23.245Z,100.00
2022-09-17T23:54:12.423Z,100.00
2022-09-17T23:57:00.956Z,100.00
2022-09-17T23:59:49.428Z,100.00
